Peonia, Kentucky
Current Conditions -  °F | °C
As of 3:55 PM on Thursday 27 Nov 2014 (Local Time) from KGLW Reporting Station
Overcast Overcast  
Wind Chill: 22°   Ceiling: 1800
Heat Index: 30°   Visibility: 10mi
Dew Point: 24°   Wind: 8mph
Humidity: 79%   Direction: 280°W
Pressure: 30.42"   Gusts: NA
Location:  37.4262°N, 86.1465°W
Report Text: KGLW 272155Z AUTO 28007KT 10SM OVC018 M01/M04 A3042 RMK AO2 T10121045
Loading
Personal Weather Stations






























Interactive Weather Map New forecast layout! Learn more

10-Day Weather Forecast

Advertisements
Track Severe Weather on mobile